Time;durP1;ratioP1;P1;durP2;ratioP2;P2;SDS_P1;SDS_P2;PMS_P1;PMS_P2;Temp;Humidity;BMP_temperature;BMP_pressure;BME280_temperature;BME280_humidity;BME280_pressure;Samples;Min_cycle;Max_cycle;Signal;HPM_P1;HPM_P2
2023/12/25 00:01:09;;;;;;;4.05;3.65;;;10.60;99.90;;;;;;5043385;28;20205;-65
2023/12/25 00:03:34;;;;;;;4.45;3.53;;;10.60;99.90;;;;;;5064833;28;20185;-64
2023/12/25 00:06:00;;;;;;;3.50;3.20;;;10.60;99.90;;;;;;5053112;28;20654;-64
2023/12/25 00:08:26;;;;;;;3.78;3.47;;;10.60;99.90;;;;;;5052773;28;20182;-65
2023/12/25 00:10:52;;;;;;;3.33;3.10;;;10.60;99.90;;;;;;5065199;28;20272;-63
2023/12/25 00:13:17;;;;;;;3.47;3.28;;;10.60;99.90;;;;;;5053026;28;20175;-64
2023/12/25 00:15:43;;;;;;;4.28;3.20;;;10.60;99.90;;;;;;5061577;28;20553;-63
2023/12/25 00:18:09;;;;;;;3.25;2.92;;;10.60;99.90;;;;;;5050373;28;20282;-65
2023/12/25 00:20:35;;;;;;;3.53;2.95;;;10.60;99.90;;;;;;5056917;28;20202;-63
2023/12/25 00:23:00;;;;;;;3.40;3.20;;;10.60;99.90;;;;;;5052693;28;20195;-65
2023/12/25 00:25:26;;;;;;;3.00;2.90;;;10.60;99.90;;;;;;5053018;28;20265;-65
2023/12/25 00:27:53;;;;;;;3.40;3.20;;;10.60;99.90;;;;;;5053273;28;20182;-64
2023/12/25 00:30:18;;;;;;;3.30;3.10;;;10.60;99.90;;;;;;5063615;28;20213;-64
2023/12/25 00:32:44;;;;;;;2.88;2.67;;;10.50;99.90;;;;;;5052817;28;20186;-64
2023/12/25 00:35:10;;;;;;;3.28;2.90;;;10.50;99.90;;;;;;5052814;28;20204;-64
2023/12/25 00:37:36;;;;;;;2.95;2.75;;;10.50;99.90;;;;;;5068292;28;20214;-63
2023/12/25 00:40:02;;;;;;;2.83;2.72;;;10.50;99.90;;;;;;5070579;28;20209;-64
2023/12/25 00:42:28;;;;;;;3.03;2.75;;;10.50;99.90;;;;;;5068086;28;20187;-65
2023/12/25 00:44:53;;;;;;;2.97;2.78;;;10.50;99.90;;;;;;5046440;28;20194;-65
2023/12/25 00:47:19;;;;;;;2.70;2.60;;;10.50;99.90;;;;;;5054125;28;20221;-65
2023/12/25 00:49:45;;;;;;;3.10;2.80;;;10.50;99.90;;;;;;5052970;28;20252;-64
2023/12/25 00:52:14;;;;;;;3.25;3.05;;;10.50;99.90;;;;;;5058652;28;20198;-64
2023/12/25 00:54:39;;;;;;;3.13;2.92;;;10.50;99.90;;;;;;5073936;28;20253;-63
2023/12/25 00:57:05;;;;;;;2.90;2.80;;;10.40;99.90;;;;;;5069214;28;20273;-64
2023/12/25 00:59:31;;;;;;;3.35;2.90;;;10.40;99.90;;;;;;5059798;28;20201;-64
2023/12/25 01:01:57;;;;;;;2.95;2.80;;;10.50;99.90;;;;;;5060970;28;20214;-63
2023/12/25 01:04:23;;;;;;;3.10;2.90;;;10.40;99.90;;;;;;5074623;28;20207;-65
2023/12/25 01:06:49;;;;;;;3.20;2.97;;;10.50;99.90;;;;;;5076248;28;20281;-65
2023/12/25 01:09:14;;;;;;;3.20;2.90;;;10.50;99.90;;;;;;5072397;28;20190;-64
2023/12/25 01:11:41;;;;;;;3.40;3.20;;;10.50;99.90;;;;;;5059602;28;20569;-64
2023/12/25 01:14:08;;;;;;;3.33;3.13;;;10.40;99.90;;;;;;5061766;28;20197;-65
2023/12/25 01:16:34;;;;;;;3.40;3.20;;;10.50;99.90;;;;;;5070024;28;20277;-64
2023/12/25 01:18:59;;;;;;;3.35;3.15;;;10.40;99.90;;;;;;5072905;28;20190;-65
2023/12/25 01:21:25;;;;;;;3.50;3.30;;;10.50;99.90;;;;;;5063826;28;20778;-65
2023/12/25 01:23:51;;;;;;;3.55;3.28;;;10.50;99.90;;;;;;5068842;28;20190;-65
2023/12/25 01:26:18;;;;;;;3.60;3.30;;;10.50;99.90;;;;;;5072097;28;20208;-63
2023/12/25 01:28:44;;;;;;;4.03;3.70;;;10.60;99.90;;;;;;5057861;28;20189;-65
2023/12/25 01:31:10;;;;;;;3.83;3.42;;;10.60;99.90;;;;;;5063402;28;20244;-63
2023/12/25 01:33:36;;;;;;;4.05;3.75;;;10.50;99.90;;;;;;5072686;28;20213;-65
2023/12/25 01:36:01;;;;;;;3.97;3.60;;;10.50;99.90;;;;;;5076523;28;20189;-65
2023/12/25 01:38:27;;;;;;;4.00;3.70;;;10.50;99.90;;;;;;5057659;28;20182;-63
2023/12/25 01:40:53;;;;;;;4.38;3.95;;;10.60;99.90;;;;;;5075728;28;20213;-65
2023/12/25 01:43:19;;;;;;;5.93;4.50;;;10.50;99.90;;;;;;5061899;28;20193;-66
2023/12/25 01:45:44;;;;;;;5.32;4.25;;;10.50;99.90;;;;;;5072424;28;20190;-64
2023/12/25 01:48:12;;;;;;;5.50;4.55;;;10.50;99.90;;;;;;5073893;28;20190;-64
2023/12/25 01:50:39;;;;;;;4.28;3.97;;;10.50;99.90;;;;;;5075549;28;20205;-65
2023/12/25 01:53:05;;;;;;;5.88;3.97;;;10.60;99.90;;;;;;5075551;28;20193;-64
2023/12/25 01:55:31;;;;;;;4.63;4.22;;;10.50;99.90;;;;;;5064974;28;20340;-66
2023/12/25 01:57:58;;;;;;;7.95;4.50;;;10.50;99.90;;;;;;5059878;28;20638;-64
2023/12/25 02:00:23;;;;;;;4.45;4.05;;;10.60;99.90;;;;;;5053357;28;20215;-65
2023/12/25 02:02:50;;;;;;;5.15;4.32;;;10.60;99.90;;;;;;5056815;28;20185;-65
2023/12/25 02:05:17;;;;;;;4.20;3.83;;;10.60;99.90;;;;;;5075425;28;20178;-65
2023/12/25 02:07:43;;;;;;;4.35;3.95;;;10.60;99.90;;;;;;5073166;28;20212;-60
2023/12/25 02:10:09;;;;;;;4.20;3.90;;;10.60;99.90;;;;;;5074959;28;20616;-63
2023/12/25 02:12:36;;;;;;;4.75;4.35;;;10.50;99.90;;;;;;5074820;28;20194;-62
2023/12/25 02:15:06;;;;;;;4.68;4.28;;;10.60;99.90;;;;;;5074405;28;20270;-65
2023/12/25 02:17:33;;;;;;;4.50;4.10;;;10.60;99.90;;;;;;5069981;28;20189;-65
2023/12/25 02:19:59;;;;;;;5.32;4.28;;;10.60;99.90;;;;;;5075553;28;20373;-62
2023/12/25 02:22:25;;;;;;;6.15;4.03;;;10.60;99.90;;;;;;5088171;28;20234;-62
2023/12/25 02:25:02;;;;;;;4.00;3.70;;;10.60;99.90;;;;;;5072957;28;20179;-63
2023/12/25 02:27:29;;;;;;;3.92;3.60;;;10.70;99.90;;;;;;5060319;28;20166;-63
2023/12/25 02:29:54;;;;;;;4.32;3.40;;;10.60;99.90;;;;;;5072082;28;20197;-64
2023/12/25 02:32:20;;;;;;;4.07;3.67;;;10.60;99.90;;;;;;5065538;28;20186;-64
2023/12/25 02:34:47;;;;;;;3.70;3.40;;;10.60;99.90;;;;;;5060172;28;20197;-64
2023/12/25 02:37:14;;;;;;;4.45;3.58;;;10.60;99.90;;;;;;5069491;28;20178;-64
2023/12/25 02:39:40;;;;;;;4.13;3.40;;;10.60;99.90;;;;;;5061399;28;20217;-64
2023/12/25 02:42:05;;;;;;;3.33;3.13;;;10.60;99.90;;;;;;5064159;28;20671;-63
2023/12/25 02:44:31;;;;;;;3.83;3.22;;;10.60;99.90;;;;;;5053750;28;20189;-65
2023/12/25 02:46:57;;;;;;;3.50;3.20;;;10.60;99.90;;;;;;5061530;28;20187;-63
2023/12/25 02:49:23;;;;;;;3.63;3.30;;;10.60;99.90;;;;;;5057725;28;20204;-64
2023/12/25 02:51:49;;;;;;;3.67;3.38;;;10.60;99.90;;;;;;5064852;28;20186;-64
2023/12/25 02:54:14;;;;;;;3.60;3.30;;;10.60;99.90;;;;;;5061588;28;20178;-64
2023/12/25 02:56:40;;;;;;;3.55;3.35;;;10.50;99.90;;;;;;5071653;28;20186;-65
2023/12/25 02:59:07;;;;;;;3.90;3.60;;;10.50;99.90;;;;;;5067983;28;20217;-64
2023/12/25 03:01:32;;;;;;;3.55;3.28;;;10.60;99.90;;;;;;5062806;28;20698;-64
2023/12/25 03:03:58;;;;;;;3.25;3.08;;;10.60;99.90;;;;;;5072659;28;20196;-65
2023/12/25 03:06:24;;;;;;;3.88;3.58;;;10.50;99.90;;;;;;5040399;28;20226;-64
2023/12/25 03:08:50;;;;;;;3.35;3.15;;;10.60;99.90;;;;;;5053899;28;20236;-63
2023/12/25 03:11:16;;;;;;;4.03;3.72;;;10.60;99.90;;;;;;5068456;28;20289;-65
2023/12/25 03:13:41;;;;;;;4.18;3.47;;;10.70;99.90;;;;;;5063721;28;20225;-63
2023/12/25 03:16:08;;;;;;;5.13;3.40;;;10.70;99.90;;;;;;5069396;28;20190;-64
2023/12/25 03:18:34;;;;;;;3.78;3.47;;;10.80;99.90;;;;;;5059801;28;20212;-63
2023/12/25 03:21:00;;;;;;;3.42;3.20;;;10.80;99.90;;;;;;5068123;28;20207;-65
2023/12/25 03:23:26;;;;;;;3.65;3.45;;;10.80;99.90;;;;;;5063427;28;20208;-65
2023/12/25 03:25:52;;;;;;;3.63;3.33;;;10.70;99.90;;;;;;5056825;28;20213;-64
2023/12/25 03:28:17;;;;;;;3.83;3.50;;;10.80;99.90;;;;;;5061921;28;20224;-63
2023/12/25 03:30:43;;;;;;;3.72;3.42;;;10.80;99.90;;;;;;5065658;28;20211;-63
2023/12/25 03:33:09;;;;;;;4.22;3.08;;;10.80;99.90;;;;;;5071069;28;20190;-63
2023/12/25 03:35:35;;;;;;;3.97;3.58;;;10.80;99.90;;;;;;5064679;28;20253;-64
2023/12/25 03:38:01;;;;;;;3.60;3.40;;;10.80;99.90;;;;;;5059981;28;20197;-64
2023/12/25 03:40:27;;;;;;;3.30;3.10;;;10.80;99.90;;;;;;5054277;28;20221;-64
2023/12/25 03:42:54;;;;;;;4.28;3.83;;;10.70;99.90;;;;;;5053795;28;20269;-63
2023/12/25 03:45:20;;;;;;;3.92;3.63;;;10.80;99.90;;;;;;5054855;28;20186;-63
2023/12/25 03:47:46;;;;;;;5.68;3.60;;;10.80;99.90;;;;;;5064747;28;20181;-63
2023/12/25 03:50:12;;;;;;;3.75;3.45;;;10.80;99.90;;;;;;5062599;28;20285;-63
2023/12/25 03:52:37;;;;;;;4.20;3.80;;;10.70;99.90;;;;;;5060342;28;20276;-64
2023/12/25 03:55:04;;;;;;;3.70;3.45;;;10.70;99.90;;;;;;5062538;28;20218;-64
2023/12/25 03:57:29;;;;;;;3.67;3.47;;;10.70;99.90;;;;;;5053135;28;20236;-64
2023/12/25 03:59:55;;;;;;;4.22;3.80;;;10.70;99.90;;;;;;5054039;28;20210;-64
2023/12/25 04:02:21;;;;;;;5.50;4.07;;;10.70;99.90;;;;;;5063014;28;20189;-64
2023/12/25 04:04:47;;;;;;;4.03;3.72;;;10.80;99.90;;;;;;5072318;28;20264;-64
2023/12/25 04:07:14;;;;;;;4.03;3.55;;;10.80;99.90;;;;;;5055304;28;20645;-63
2023/12/25 04:09:41;;;;;;;4.30;3.90;;;10.80;99.90;;;;;;5072829;28;20194;-63
2023/12/25 04:12:07;;;;;;;4.13;3.83;;;10.90;99.90;;;;;;5071750;28;20170;-64
2023/12/25 04:14:38;;;;;;;3.78;3.47;;;10.90;99.90;;;;;;5071151;28;20201;-64
2023/12/25 04:17:04;;;;;;;3.60;3.40;;;10.90;99.90;;;;;;5069897;28;20194;-63
2023/12/25 04:19:30;;;;;;;3.80;3.50;;;11.00;99.90;;;;;;5053149;28;20194;-62
2023/12/25 04:21:55;;;;;;;3.30;3.10;;;10.90;99.90;;;;;;5053101;28;20272;-62
2023/12/25 04:24:21;;;;;;;3.70;3.50;;;10.90;99.90;;;;;;5053166;28;20641;-64
2023/12/25 04:26:47;;;;;;;3.67;3.35;;;11.10;99.90;;;;;;5038795;28;20179;-64
2023/12/25 04:29:13;;;;;;;3.92;3.38;;;11.10;99.90;;;;;;5058142;28;20283;-64
2023/12/25 04:31:38;;;;;;;3.70;3.40;;;11.10;99.90;;;;;;5061541;28;20557;-61
2023/12/25 04:34:04;;;;;;;3.78;3.47;;;11.10;99.90;;;;;;5076973;28;20188;-63
2023/12/25 04:36:30;;;;;;;4.00;3.60;;;11.10;99.90;;;;;;5076873;28;20213;-64
2023/12/25 04:38:58;;;;;;;4.30;3.58;;;11.10;99.90;;;;;;5068412;28;20186;-63
2023/12/25 04:41:24;;;;;;;3.53;3.33;;;11.00;99.90;;;;;;5040655;28;20706;-64
2023/12/25 04:43:53;;;;;;;3.40;3.20;;;11.10;99.90;;;;;;5051936;28;20201;-63
2023/12/25 04:46:19;;;;;;;3.95;3.65;;;11.20;99.90;;;;;;5066600;28;20204;-63
2023/12/25 04:48:45;;;;;;;4.70;4.10;;;11.20;99.90;;;;;;5075519;28;20524;-61
2023/12/25 04:51:11;;;;;;;3.83;3.53;;;11.20;99.90;;;;;;5056537;28;20214;-63
2023/12/25 04:53:37;;;;;;;4.10;3.80;;;11.20;99.90;;;;;;5072795;28;20195;-62
2023/12/25 04:56:03;;;;;;;4.15;3.83;;;11.20;99.90;;;;;;5077016;28;20181;-63
2023/12/25 04:58:29;;;;;;;4.30;3.80;;;11.20;99.90;;;;;;5074661;28;20193;-63
2023/12/25 05:00:55;;;;;;;3.80;3.50;;;11.30;99.90;;;;;;5056201;28;20213;-64
2023/12/25 05:03:21;;;;;;;3.58;3.30;;;11.30;99.90;;;;;;5076291;28;20188;-64
2023/12/25 05:05:50;;;;;;;3.80;3.28;;;11.30;99.90;;;;;;5076327;28;20192;-65
2023/12/25 05:08:18;;;;;;;3.60;3.40;;;11.20;99.90;;;;;;5076320;28;20181;-63
2023/12/25 05:10:44;;;;;;;3.78;3.35;;;11.20;99.90;;;;;;5067138;28;20205;-64
2023/12/25 05:13:10;;;;;;;5.13;3.85;;;11.20;99.90;;;;;;5057226;28;20201;-63
2023/12/25 05:15:36;;;;;;;3.90;3.60;;;11.10;99.90;;;;;;5073578;28;20197;-63
2023/12/25 05:18:02;;;;;;;3.80;3.42;;;11.10;99.90;;;;;;5058050;28;20578;-64
2023/12/25 05:20:28;;;;;;;3.53;3.33;;;11.10;99.90;;;;;;5076189;28;20202;-64
2023/12/25 05:22:54;;;;;;;3.78;3.58;;;11.10;99.90;;;;;;5076230;28;20189;-63
2023/12/25 05:25:19;;;;;;;4.60;3.67;;;11.20;99.90;;;;;;5074401;28;20250;-65
2023/12/25 05:27:45;;;;;;;3.63;3.33;;;11.30;99.90;;;;;;5076055;28;20189;-64
2023/12/25 05:30:11;;;;;;;4.15;3.85;;;11.30;99.90;;;;;;5057462;28;20206;-64
2023/12/25 05:32:37;;;;;;;3.92;3.58;;;11.30;99.90;;;;;;5074232;28;20558;-64
2023/12/25 05:35:06;;;;;;;3.78;3.47;;;11.30;99.90;;;;;;5075819;28;20544;-62
2023/12/25 05:37:32;;;;;;;3.30;3.10;;;11.30;99.90;;;;;;5073538;28;20197;-64
2023/12/25 05:39:58;;;;;;;3.60;3.30;;;11.30;99.90;;;;;;5075128;28;20206;-63
2023/12/25 05:42:24;;;;;;;3.65;3.35;;;11.30;99.90;;;;;;5074406;28;20178;-64
2023/12/25 05:44:49;;;;;;;3.58;3.28;;;11.20;99.90;;;;;;5074937;28;20190;-64
2023/12/25 05:47:15;;;;;;;3.90;3.60;;;11.30;99.90;;;;;;5058251;28;20187;-64
2023/12/25 05:49:41;;;;;;;3.60;3.30;;;11.20;99.90;;;;;;5037493;28;20683;-63
2023/12/25 05:52:07;;;;;;;3.40;2.90;;;11.30;99.90;;;;;;5055866;28;20618;-63
2023/12/25 05:54:33;;;;;;;3.33;3.20;;;11.20;99.90;;;;;;5064657;28;20180;-64
2023/12/25 05:56:59;;;;;;;4.30;3.42;;;11.20;99.90;;;;;;5073376;28;20188;-63
2023/12/25 05:59:25;;;;;;;3.50;3.22;;;11.20;99.90;;;;;;5073937;28;20205;-64
2023/12/25 06:01:51;;;;;;;3.28;3.08;;;11.20;99.90;;;;;;5079946;28;20312;-63
2023/12/25 06:04:17;;;;;;;3.70;3.40;;;11.10;99.90;;;;;;5075537;28;20181;-64
2023/12/25 06:06:44;;;;;;;3.53;3.22;;;11.10;99.90;;;;;;5062474;28;20281;-64
2023/12/25 06:09:10;;;;;;;3.20;3.00;;;11.10;99.90;;;;;;5036931;28;20187;-64
2023/12/25 06:11:36;;;;;;;4.35;2.90;;;11.10;99.90;;;;;;5056330;28;20528;-64
2023/12/25 06:14:03;;;;;;;3.50;3.20;;;11.00;99.90;;;;;;5060837;28;20182;-63
2023/12/25 06:16:29;;;;;;;4.38;3.10;;;11.00;99.90;;;;;;5070104;28;20196;-64
2023/12/25 06:18:55;;;;;;;3.78;3.15;;;11.00;99.90;;;;;;5075293;28;20163;-64
2023/12/25 06:21:20;;;;;;;3.20;2.90;;;11.00;99.90;;;;;;5074488;28;20228;-64
2023/12/25 06:23:46;;;;;;;3.20;3.00;;;11.00;99.90;;;;;;5074757;28;20177;-64
2023/12/25 06:26:12;;;;;;;3.47;3.17;;;11.00;99.90;;;;;;5067214;28;20243;-65
2023/12/25 06:28:38;;;;;;;3.30;3.13;;;11.00;99.90;;;;;;5063345;28;20236;-64
2023/12/25 06:31:04;;;;;;;3.60;3.37;;;10.90;99.90;;;;;;5055936;28;20212;-64
2023/12/25 06:33:29;;;;;;;3.63;3.40;;;10.90;99.90;;;;;;5050110;28;20193;-64
2023/12/25 06:35:55;;;;;;;3.60;3.40;;;11.00;99.90;;;;;;5069854;28;20194;-64
2023/12/25 06:38:21;;;;;;;3.20;3.00;;;10.90;99.90;;;;;;5041303;28;20204;-63
2023/12/25 06:40:47;;;;;;;3.72;3.38;;;10.90;99.90;;;;;;5053937;28;20210;-64
2023/12/25 06:43:18;;;;;;;3.50;3.30;;;10.90;99.90;;;;;;5065720;28;20220;-63
2023/12/25 06:45:44;;;;;;;3.50;3.30;;;10.80;99.90;;;;;;5073213;28;20681;-64
2023/12/25 06:48:10;;;;;;;3.70;3.50;;;10.80;99.90;;;;;;5061630;28;20182;-65
2023/12/25 06:50:38;;;;;;;3.50;3.22;;;10.90;99.90;;;;;;5066159;28;20285;-65
2023/12/25 06:53:04;;;;;;;4.43;3.25;;;10.80;99.90;;;;;;5054016;28;20185;-64
2023/12/25 06:55:30;;;;;;;3.58;3.38;;;10.80;99.90;;;;;;5063558;28;20591;-66
2023/12/25 06:57:57;;;;;;;3.50;3.30;;;10.90;99.90;;;;;;5074655;28;20254;-64
2023/12/25 07:00:23;;;;;;;3.50;3.20;;;10.90;99.90;;;;;;5055337;28;20226;-65
2023/12/25 07:02:50;;;;;;;3.30;3.10;;;10.90;99.90;;;;;;5073729;28;20165;-64
2023/12/25 07:05:16;;;;;;;3.15;2.95;;;10.90;99.90;;;;;;5060972;28;20311;-65
2023/12/25 07:07:42;;;;;;;3.50;3.30;;;10.80;99.90;;;;;;5040100;28;20231;-64
2023/12/25 07:10:08;;;;;;;4.43;3.40;;;10.80;99.90;;;;;;5069172;28;20206;-65
2023/12/25 07:12:34;;;;;;;3.22;3.10;;;10.70;99.90;;;;;;5054743;28;20181;-66
2023/12/25 07:15:00;;;;;;;3.40;3.20;;;10.70;99.90;;;;;;5066735;28;20561;-64
2023/12/25 07:17:25;;;;;;;3.45;3.25;;;10.70;99.90;;;;;;5073278;28;20182;-65
2023/12/25 07:19:52;;;;;;;3.80;3.50;;;10.70;99.90;;;;;;5039592;28;20207;-65
2023/12/25 07:22:18;;;;;;;3.92;3.63;;;10.70;99.90;;;;;;5042614;28;20217;-65
2023/12/25 07:24:46;;;;;;;4.10;3.80;;;10.70;99.90;;;;;;5063893;28;20182;-65
2023/12/25 07:27:13;;;;;;;4.13;3.80;;;10.70;99.90;;;;;;5040847;28;20597;-65
2023/12/25 07:29:39;;;;;;;6.90;3.92;;;10.70;99.90;;;;;;5061862;28;20213;-65
2023/12/25 07:32:05;;;;;;;4.07;3.70;;;10.70;99.90;;;;;;5061137;28;20186;-66
2023/12/25 07:34:31;;;;;;;3.20;3.00;;;10.70;99.90;;;;;;5073350;28;20185;-66
2023/12/25 07:36:57;;;;;;;3.33;3.13;;;10.70;99.90;;;;;;5073355;28;20269;-66
2023/12/25 07:39:23;;;;;;;4.07;3.67;;;10.80;99.90;;;;;;5072939;28;20622;-66
2023/12/25 07:41:49;;;;;;;3.95;3.65;;;10.80;99.90;;;;;;5055233;28;20588;-65
2023/12/25 07:44:16;;;;;;;3.72;3.42;;;10.80;99.90;;;;;;5073090;28;20185;-66
2023/12/25 07:46:42;;;;;;;3.92;3.20;;;10.80;99.90;;;;;;5055304;28;20189;-67
2023/12/25 07:49:07;;;;;;;3.95;3.50;;;10.80;99.90;;;;;;5073053;28;20178;-66
2023/12/25 07:51:33;;;;;;;4.78;3.30;;;10.90;99.90;;;;;;5073431;28;20662;-66
2023/12/25 07:53:59;;;;;;;3.17;3.00;;;10.90;99.90;;;;;;5073341;28;20639;-66
2023/12/25 07:56:25;;;;;;;3.50;3.20;;;10.80;99.90;;;;;;5073085;28;20178;-65
2023/12/25 07:58:51;;;;;;;3.67;3.38;;;10.80;99.90;;;;;;5073059;28;20181;-66
2023/12/25 08:01:22;;;;;;;3.65;3.38;;;10.80;99.90;;;;;;5072269;28;20720;-65
2023/12/25 08:03:49;;;;;;;3.80;3.60;;;10.80;99.90;;;;;;5072889;28;20174;-66
2023/12/25 08:06:15;;;;;;;4.63;4.30;;;10.80;99.90;;;;;;5072849;28;20194;-66
2023/12/25 08:08:41;;;;;;;4.10;3.80;;;10.80;99.90;;;;;;5073218;28;20540;-65
2023/12/25 08:11:06;;;;;;;4.22;3.92;;;10.80;99.90;;;;;;5072584;28;20216;-64
2023/12/25 08:13:32;;;;;;;4.07;3.60;;;10.80;99.90;;;;;;5054891;28;20192;-66
2023/12/25 08:15:58;;;;;;;3.60;3.30;;;10.80;99.90;;;;;;5054859;28;20613;-66
2023/12/25 08:18:24;;;;;;;3.53;3.33;;;10.90;99.90;;;;;;5054864;28;20181;-66
2023/12/25 08:20:49;;;;;;;4.00;3.25;;;10.90;99.90;;;;;;5073287;28;20231;-66
2023/12/25 08:23:15;;;;;;;3.72;3.30;;;10.80;99.90;;;;;;5073294;28;20177;-66
2023/12/25 08:25:41;;;;;;;3.75;3.45;;;10.90;99.90;;;;;;5072183;28;20223;-66
2023/12/25 08:28:07;;;;;;;5.03;3.20;;;10.90;99.90;;;;;;5073017;28;20182;-65
2023/12/25 08:30:33;;;;;;;3.70;3.40;;;10.90;99.90;;;;;;5072291;28;20209;-66
2023/12/25 08:32:59;;;;;;;3.78;3.47;;;10.90;99.90;;;;;;5072747;28;20177;-65
2023/12/25 08:35:25;;;;;;;3.42;3.22;;;10.90;99.90;;;;;;5072262;28;20185;-64
2023/12/25 08:37:50;;;;;;;4.45;3.13;;;10.90;99.90;;;;;;5072958;28;20227;-66
2023/12/25 08:40:16;;;;;;;3.30;3.10;;;10.90;99.90;;;;;;5072318;28;20204;-66
2023/12/25 08:42:42;;;;;;;4.65;3.70;;;10.90;99.90;;;;;;5072704;28;20548;-65
2023/12/25 08:45:08;;;;;;;3.45;3.10;;;10.90;99.90;;;;;;5073592;28;20182;-66
2023/12/25 08:47:34;;;;;;;3.33;3.03;;;10.90;99.90;;;;;;5072930;28;20178;-67
2023/12/25 08:50:00;;;;;;;3.40;3.10;;;10.80;99.90;;;;;;5054581;28;20213;-66
2023/12/25 08:52:26;;;;;;;3.83;3.53;;;10.80;99.90;;;;;;5073101;28;20184;-65
2023/12/25 08:54:51;;;;;;;3.40;3.20;;;10.80;99.90;;;;;;5054374;28;20182;-65
2023/12/25 08:57:17;;;;;;;3.42;3.20;;;10.80;99.90;;;;;;5072686;28;20260;-66
2023/12/25 08:59:45;;;;;;;3.50;3.30;;;10.70;99.90;;;;;;5072925;28;20281;-65
2023/12/25 09:02:11;;;;;;;3.35;3.08;;;10.70;99.90;;;;;;5072342;28;20206;-65
2023/12/25 09:04:37;;;;;;;3.30;3.10;;;10.70;99.90;;;;;;5072469;28;20235;-65
2023/12/25 09:07:02;;;;;;;3.10;2.90;;;10.70;99.90;;;;;;5054310;28;20206;-66
2023/12/25 09:09:28;;;;;;;2.90;2.80;;;10.70;99.90;;;;;;5072101;28;20209;-65
2023/12/25 09:11:54;;;;;;;3.25;2.95;;;10.80;99.90;;;;;;5054615;28;20189;-66
2023/12/25 09:14:20;;;;;;;2.75;2.65;;;10.70;99.90;;;;;;5075889;28;20252;-65
2023/12/25 09:16:47;;;;;;;2.70;2.60;;;10.70;99.90;;;;;;5076292;28;20615;-64
2023/12/25 09:19:12;;;;;;;2.70;2.60;;;10.60;99.90;;;;;;5076061;28;20216;-65
2023/12/25 09:21:42;;;;;;;2.58;2.47;;;10.40;99.90;;;;;;5057795;28;20210;-65
2023/12/25 09:24:08;;;;;;;2.70;2.60;;;10.40;99.90;;;;;;5075871;28;20220;-65
2023/12/25 09:26:34;;;;;;;2.65;2.55;;;10.30;99.90;;;;;;5075857;28;20209;-66
2023/12/25 09:29:00;;;;;;;2.70;2.60;;;10.30;99.90;;;;;;5057661;28;20194;-65
2023/12/25 09:31:26;;;;;;;2.90;2.80;;;10.20;99.90;;;;;;5057672;28;20190;-66
2023/12/25 09:33:51;;;;;;;2.80;2.70;;;10.10;99.90;;;;;;5076018;28;20170;-66
2023/12/25 09:36:17;;;;;;;4.13;3.00;;;10.10;99.90;;;;;;5075704;28;20177;-66
2023/12/25 09:38:43;;;;;;;2.90;2.80;;;10.10;99.90;;;;;;5075509;28;20201;-65
2023/12/25 09:41:10;;;;;;;2.92;2.83;;;10.10;99.90;;;;;;5075136;28;20213;-66
2023/12/25 09:43:41;;;;;;;2.90;2.80;;;10.10;99.90;;;;;;5075372;28;20178;-65
2023/12/25 09:46:11;;;;;;;2.78;2.67;;;10.10;99.90;;;;;;5057544;28;20657;-66
2023/12/25 09:48:38;;;;;;;3.00;2.80;;;10.00;99.90;;;;;;5075981;28;20717;-66
2023/12/25 09:51:08;;;;;;;2.97;2.75;;;9.90;99.90;;;;;;5075264;28;20205;-65
2023/12/25 09:53:45;;;;;;;2.80;2.70;;;9.90;99.90;;;;;;5075607;28;20190;-65
2023/12/25 09:56:21;;;;;;;3.00;2.80;;;9.90;99.90;;;;;;5056891;28;20188;-65
2023/12/25 09:58:50;;;;;;;2.92;2.70;;;9.80;99.90;;;;;;5075578;28;20628;-66
2023/12/25 10:01:21;;;;;;;2.90;2.70;;;9.80;99.90;;;;;;5056986;28;20225;-65
2023/12/25 10:03:49;;;;;;;3.03;2.83;;;9.80;99.90;;;;;;5075732;28;20175;-65
2023/12/25 10:06:22;;;;;;;3.00;2.90;;;9.80;99.90;;;;;;5074989;28;20198;-65
2023/12/25 10:08:49;;;;;;;3.13;2.92;;;9.70;99.90;;;;;;5075775;28;20162;-65
2023/12/25 10:11:15;;;;;;;3.70;2.90;;;9.70;99.90;;;;;;5074739;28;20193;-65
2023/12/25 10:13:41;;;;;;;3.30;3.10;;;9.70;99.90;;;;;;5075132;28;20178;-65
2023/12/25 10:16:08;;;;;;;3.13;2.92;;;9.70;99.90;;;;;;5057678;28;20190;-66
2023/12/25 10:18:35;;;;;;;3.58;3.00;;;9.60;99.90;;;;;;5074979;28;20186;-66
2023/12/25 10:21:04;;;;;;;2.90;2.80;;;9.60;99.90;;;;;;5058139;28;20240;-66
2023/12/25 10:23:31;;;;;;;3.10;2.80;;;9.50;99.90;;;;;;5058240;28;20773;-65
2023/12/25 10:25:59;;;;;;;2.90;2.80;;;9.60;99.90;;;;;;5058024;28;20189;-65
2023/12/25 10:28:28;;;;;;;2.90;2.80;;;9.50;99.90;;;;;;5074649;28;20198;-65
2023/12/25 10:31:10;;;;;;;3.10;2.90;;;9.60;99.90;;;;;;5074477;28;20228;-65
2023/12/25 10:33:36;;;;;;;2.72;2.63;;;9.50;99.90;;;;;;5056632;28;20572;-65
2023/12/25 10:36:10;;;;;;;2.95;2.75;;;9.50;99.90;;;;;;5074533;28;20211;-65
2023/12/25 10:38:38;;;;;;;2.97;2.78;;;9.50;99.90;;;;;;5074429;28;20166;-65
2023/12/25 10:41:18;;;;;;;2.70;2.60;;;9.40;99.90;;;;;;5056093;28;20308;-65
2023/12/25 10:43:49;;;;;;;2.80;2.70;;;9.50;99.90;;;;;;5074394;28;20256;-66
2023/12/25 10:46:16;;;;;;;2.80;2.70;;;9.50;99.90;;;;;;5056541;28;20174;-65
2023/12/25 10:48:48;;;;;;;2.97;2.80;;;9.60;99.90;;;;;;5074598;28;20186;-65
2023/12/25 10:51:20;;;;;;;2.83;2.67;;;9.50;99.90;;;;;;5074283;28;20685;-66
2023/12/25 10:53:47;;;;;;;3.40;3.20;;;9.50;99.90;;;;;;5056452;28;20661;-66
2023/12/25 10:56:13;;;;;;;3.43;3.13;;;9.50;99.90;;;;;;5073831;28;20184;-66
2023/12/25 10:58:39;;;;;;;3.60;3.30;;;9.50;99.90;;;;;;5073980;28;20177;-65
2023/12/25 11:01:05;;;;;;;2.90;2.70;;;9.50;99.90;;;;;;5073807;28;20232;-65
2023/12/25 11:03:33;;;;;;;3.50;3.20;;;9.60;99.90;;;;;;5056113;28;20205;-66
2023/12/25 11:06:00;;;;;;;3.45;3.15;;;9.60;99.90;;;;;;5056084;28;20181;-65
2023/12/25 11:08:26;;;;;;;3.13;2.97;;;9.60;99.90;;;;;;5074339;28;20532;-65
2023/12/25 11:10:53;;;;;;;3.35;3.05;;;9.60;99.90;;;;;;5073527;28;20628;-66
2023/12/25 11:13:19;;;;;;;3.45;3.15;;;9.60;99.90;;;;;;5073753;28;20169;-65
2023/12/25 11:15:45;;;;;;;3.60;3.30;;;9.60;99.90;;;;;;5073674;28;20186;-66
2023/12/25 11:18:11;;;;;;;3.60;3.40;;;9.60;99.90;;;;;;5073971;28;20188;-67
2023/12/25 11:20:41;;;;;;;3.00;2.90;;;9.60;99.90;;;;;;5073588;28;20297;-66
2023/12/25 11:23:07;;;;;;;3.10;2.90;;;9.60;99.90;;;;;;5073986;28;20166;-66
2023/12/25 11:25:33;;;;;;;3.28;2.97;;;9.60;99.90;;;;;;5055400;28;20601;-65
2023/12/25 11:28:04;;;;;;;2.83;2.70;;;9.60;99.90;;;;;;5073798;28;20659;-65
2023/12/25 11:30:35;;;;;;;3.30;3.10;;;9.60;99.90;;;;;;5073525;28;20222;-66
2023/12/25 11:33:00;;;;;;;2.97;2.80;;;9.60;99.90;;;;;;5055486;28;20186;-66
2023/12/25 11:35:32;;;;;;;3.10;2.90;;;9.60;99.90;;;;;;5054836;28;20212;-66
2023/12/25 11:38:17;;;;;;;3.20;3.00;;;9.50;99.90;;;;;;5073436;28;20166;-66
2023/12/25 11:40:45;;;;;;;3.00;2.80;;;9.60;99.90;;;;;;5072928;28;20213;-66
2023/12/25 11:43:13;;;;;;;3.10;2.90;;;9.50;99.90;;;;;;5073310;28;20173;-67
2023/12/25 11:45:43;;;;;;;3.20;3.00;;;9.50;99.90;;;;;;5073346;28;20283;-66
2023/12/25 11:48:11;;;;;;;3.20;3.00;;;9.50;99.90;;;;;;5073417;28;20591;-66
2023/12/25 11:50:43;;;;;;;3.47;3.28;;;9.60;99.90;;;;;;5073105;28;20197;-66
2023/12/25 11:53:09;;;;;;;3.28;3.08;;;9.60;99.90;;;;;;5073490;28;20166;-66
2023/12/25 11:55:36;;;;;;;3.60;3.38;;;9.60;99.90;;;;;;5073175;28;20178;-66
2023/12/25 11:58:02;;;;;;;4.95;3.47;;;9.60;99.90;;;;;;5073376;28;20190;-66
2023/12/25 12:00:31;;;;;;;3.30;3.10;;;9.70;99.90;;;;;;5055028;28;20259;-67
2023/12/25 12:02:57;;;;;;;3.30;3.10;;;9.60;99.90;;;;;;5073522;28;20313;-66
2023/12/25 12:05:23;;;;;;;3.25;3.05;;;9.60;99.90;;;;;;5073306;28;20186;-66
2023/12/25 12:07:49;;;;;;;3.35;3.15;;;9.70;99.90;;;;;;5073160;28;20217;-66
2023/12/25 12:10:15;;;;;;;4.30;3.10;;;9.70;99.90;;;;;;5054722;28;20240;-66
2023/12/25 12:12:42;;;;;;;2.72;2.63;;;9.70;99.90;;;;;;5073041;28;20231;-67
2023/12/25 12:15:08;;;;;;;2.90;2.72;;;9.80;99.90;;;;;;5073319;28;20182;-66
2023/12/25 12:17:38;;;;;;;3.10;2.90;;;9.80;99.90;;;;;;5073715;28;20158;-66
2023/12/25 12:20:05;;;;;;;3.00;2.80;;;9.80;99.90;;;;;;5055329;28;20202;-67
2023/12/25 12:22:32;;;;;;;2.63;2.53;;;9.70;99.90;;;;;;5057275;28;20209;-66
2023/12/25 12:25:18;;;;;;;2.85;2.65;;;9.80;99.90;;;;;;5074187;28;20174;-66
2023/12/25 12:27:44;;;;;;;2.70;2.60;;;9.80;99.90;;;;;;5073286;28;20166;-66
2023/12/25 12:30:10;;;;;;;3.00;2.80;;;9.80;99.90;;;;;;5072824;28;20727;-66
2023/12/25 12:32:37;;;;;;;3.10;2.90;;;9.90;99.90;;;;;;5073123;28;20178;-66
2023/12/25 12:35:10;;;;;;;2.72;2.63;;;9.90;99.90;;;;;;5054548;28;20186;-66
2023/12/25 12:37:36;;;;;;;3.53;3.10;;;9.90;99.90;;;;;;5054796;28;20182;-66
2023/12/25 12:40:07;;;;;;;3.17;2.88;;;9.90;99.90;;;;;;5072479;28;20198;-66
2023/12/25 12:42:33;;;;;;;4.50;3.42;;;9.90;99.90;;;;;;5072696;28;20175;-66
2023/12/25 12:45:06;;;;;;;2.90;2.80;;;9.90;99.90;;;;;;5072650;28;20556;-66